sensor_id;sensor_type;location;lat;lon;timestamp;temperature;humidity
23544;DHT22;11950;51.230;4.012;2024-01-27T00:00:46;4.20;99.90
23544;DHT22;11950;51.230;4.012;2024-01-27T00:03:12;4.20;99.90
23544;DHT22;11950;51.230;4.012;2024-01-27T00:05:38;4.10;99.90
23544;DHT22;11950;51.230;4.012;2024-01-27T00:08:05;4.20;99.90
23544;DHT22;11950;51.230;4.012;2024-01-27T00:10:31;4.10;99.90
23544;DHT22;11950;51.230;4.012;2024-01-27T00:12:57;4.10;99.90
23544;DHT22;11950;51.230;4.012;2024-01-27T00:15:24;4.10;99.90
23544;DHT22;11950;51.230;4.012;2024-01-27T00:17:50;4.00;99.90
23544;DHT22;11950;51.230;4.012;2024-01-27T00:20:17;4.00;99.90
23544;DHT22;11950;51.230;4.012;2024-01-27T00:22:43;4.10;99.90
23544;DHT22;11950;51.230;4.012;2024-01-27T00:25:09;4.00;99.90
23544;DHT22;11950;51.230;4.012;2024-01-27T00:27:36;4.00;99.90
23544;DHT22;11950;51.230;4.012;2024-01-27T00:30:02;4.00;99.90
23544;DHT22;11950;51.230;4.012;2024-01-27T00:32:29;4.00;99.90
23544;DHT22;11950;51.230;4.012;2024-01-27T00:34:55;4.00;99.90
23544;DHT22;11950;51.230;4.012;2024-01-27T00:37:21;3.90;99.90
23544;DHT22;11950;51.230;4.012;2024-01-27T00:39:47;4.00;99.90
23544;DHT22;11950;51.230;4.012;2024-01-27T00:42:14;4.00;99.90
23544;DHT22;11950;51.230;4.012;2024-01-27T00:44:40;3.90;99.90
23544;DHT22;11950;51.230;4.012;2024-01-27T00:47:06;3.90;99.90
23544;DHT22;11950;51.230;4.012;2024-01-27T00:49:32;3.90;99.90
23544;DHT22;11950;51.230;4.012;2024-01-27T00:51:58;3.90;99.90
23544;DHT22;11950;51.230;4.012;2024-01-27T00:54:25;3.90;99.90
23544;DHT22;11950;51.230;4.012;2024-01-27T00:56:52;3.90;99.90
23544;DHT22;11950;51.230;4.012;2024-01-27T00:59:18;3.90;99.90
23544;DHT22;11950;51.230;4.012;2024-01-27T01:01:44;3.90;99.90
23544;DHT22;11950;51.230;4.012;2024-01-27T01:04:11;3.80;99.90
23544;DHT22;11950;51.230;4.012;2024-01-27T01:06:39;3.80;99.90
23544;DHT22;11950;51.230;4.012;2024-01-27T01:09:06;3.90;99.90
23544;DHT22;11950;51.230;4.012;2024-01-27T01:11:32;3.90;99.90
23544;DHT22;11950;51.230;4.012;2024-01-27T01:13:58;3.90;99.90
23544;DHT22;11950;51.230;4.012;2024-01-27T01:16:25;3.90;99.90
23544;DHT22;11950;51.230;4.012;2024-01-27T01:18:51;3.90;99.90
23544;DHT22;11950;51.230;4.012;2024-01-27T01:21:17;3.80;99.90
23544;DHT22;11950;51.230;4.012;2024-01-27T01:23:43;3.80;99.90
23544;DHT22;11950;51.230;4.012;2024-01-27T01:26:10;3.80;99.90
23544;DHT22;11950;51.230;4.012;2024-01-27T01:28:36;3.90;99.90
23544;DHT22;11950;51.230;4.012;2024-01-27T01:31:03;3.80;99.90
23544;DHT22;11950;51.230;4.012;2024-01-27T01:33:32;3.70;99.90
23544;DHT22;11950;51.230;4.012;2024-01-27T01:35:58;3.70;99.90
23544;DHT22;11950;51.230;4.012;2024-01-27T01:38:24;3.80;99.90
23544;DHT22;11950;51.230;4.012;2024-01-27T01:40:50;3.90;99.90
23544;DHT22;11950;51.230;4.012;2024-01-27T01:43:17;3.80;99.90
23544;DHT22;11950;51.230;4.012;2024-01-27T01:45:43;3.70;99.90
23544;DHT22;11950;51.230;4.012;2024-01-27T01:48:09;3.70;99.90
23544;DHT22;11950;51.230;4.012;2024-01-27T01:50:36;3.70;99.90
23544;DHT22;11950;51.230;4.012;2024-01-27T01:53:03;3.70;99.90
23544;DHT22;11950;51.230;4.012;2024-01-27T01:55:30;3.70;99.90
23544;DHT22;11950;51.230;4.012;2024-01-27T01:57:56;3.80;99.90
23544;DHT22;11950;51.230;4.012;2024-01-27T02:00:22;3.70;99.90
23544;DHT22;11950;51.230;4.012;2024-01-27T02:02:48;3.80;99.90
23544;DHT22;11950;51.230;4.012;2024-01-27T02:05:15;3.70;99.90
23544;DHT22;11950;51.230;4.012;2024-01-27T02:07:41;3.70;99.90
23544;DHT22;11950;51.230;4.012;2024-01-27T02:10:13;3.70;99.90
23544;DHT22;11950;51.230;4.012;2024-01-27T02:12:42;3.60;99.90
23544;DHT22;11950;51.230;4.012;2024-01-27T02:15:12;3.60;99.90
23544;DHT22;11950;51.230;4.012;2024-01-27T02:17:39;3.60;99.90
23544;DHT22;11950;51.230;4.012;2024-01-27T02:20:07;3.60;99.90
23544;DHT22;11950;51.230;4.012;2024-01-27T02:22:34;3.50;99.90
23544;DHT22;11950;51.230;4.012;2024-01-27T02:25:04;3.50;99.90
23544;DHT22;11950;51.230;4.012;2024-01-27T02:27:30;3.40;99.90
23544;DHT22;11950;51.230;4.012;2024-01-27T02:29:56;3.40;99.90
23544;DHT22;11950;51.230;4.012;2024-01-27T02:32:23;3.50;99.90
23544;DHT22;11950;51.230;4.012;2024-01-27T02:34:49;3.50;99.90
23544;DHT22;11950;51.230;4.012;2024-01-27T02:37:16;3.50;99.90
23544;DHT22;11950;51.230;4.012;2024-01-27T02:39:42;3.50;99.90
23544;DHT22;11950;51.230;4.012;2024-01-27T02:42:08;3.50;99.90
23544;DHT22;11950;51.230;4.012;2024-01-27T02:44:34;3.50;99.90
23544;DHT22;11950;51.230;4.012;2024-01-27T02:47:00;3.60;99.90
23544;DHT22;11950;51.230;4.012;2024-01-27T02:49:27;3.60;99.90
23544;DHT22;11950;51.230;4.012;2024-01-27T02:51:53;3.60;99.90
23544;DHT22;11950;51.230;4.012;2024-01-27T02:54:19;3.70;99.90
23544;DHT22;11950;51.230;4.012;2024-01-27T02:56:46;3.60;99.90
23544;DHT22;11950;51.230;4.012;2024-01-27T02:59:12;3.60;99.90
23544;DHT22;11950;51.230;4.012;2024-01-27T03:01:38;3.60;99.90
23544;DHT22;11950;51.230;4.012;2024-01-27T03:04:05;3.60;99.90
23544;DHT22;11950;51.230;4.012;2024-01-27T03:06:31;3.50;99.90
23544;DHT22;11950;51.230;4.012;2024-01-27T03:08:57;3.40;99.90
23544;DHT22;11950;51.230;4.012;2024-01-27T03:11:24;3.50;99.90
23544;DHT22;11950;51.230;4.012;2024-01-27T03:13:50;3.50;99.90
23544;DHT22;11950;51.230;4.012;2024-01-27T03:16:16;3.50;99.90
23544;DHT22;11950;51.230;4.012;2024-01-27T03:18:44;3.50;99.90
23544;DHT22;11950;51.230;4.012;2024-01-27T03:21:10;3.60;99.90
23544;DHT22;11950;51.230;4.012;2024-01-27T03:23:37;3.60;99.90
23544;DHT22;11950;51.230;4.012;2024-01-27T03:26:03;3.50;99.90
23544;DHT22;11950;51.230;4.012;2024-01-27T03:28:32;3.50;99.90
23544;DHT22;11950;51.230;4.012;2024-01-27T03:30:58;3.50;99.90
23544;DHT22;11950;51.230;4.012;2024-01-27T03:33:26;3.50;99.90
23544;DHT22;11950;51.230;4.012;2024-01-27T03:35:52;3.50;99.90
23544;DHT22;11950;51.230;4.012;2024-01-27T03:38:18;3.50;99.90
23544;DHT22;11950;51.230;4.012;2024-01-27T03:40:44;3.50;99.90
23544;DHT22;11950;51.230;4.012;2024-01-27T03:43:11;3.50;99.90
23544;DHT22;11950;51.230;4.012;2024-01-27T03:45:37;3.50;99.90
23544;DHT22;11950;51.230;4.012;2024-01-27T03:48:03;3.50;99.90
23544;DHT22;11950;51.230;4.012;2024-01-27T03:50:30;3.40;99.90
23544;DHT22;11950;51.230;4.012;2024-01-27T03:52:56;3.40;99.90
23544;DHT22;11950;51.230;4.012;2024-01-27T03:55:22;3.40;99.90
23544;DHT22;11950;51.230;4.012;2024-01-27T03:57:48;3.40;99.90
23544;DHT22;11950;51.230;4.012;2024-01-27T04:00:15;3.40;99.90
23544;DHT22;11950;51.230;4.012;2024-01-27T04:02:41;3.30;99.90
23544;DHT22;11950;51.230;4.012;2024-01-27T04:05:07;3.30;99.90
23544;DHT22;11950;51.230;4.012;2024-01-27T04:07:34;3.30;99.90
23544;DHT22;11950;51.230;4.012;2024-01-27T04:10:02;3.30;99.90
23544;DHT22;11950;51.230;4.012;2024-01-27T04:12:29;3.30;99.90
23544;DHT22;11950;51.230;4.012;2024-01-27T04:14:57;3.30;99.90
23544;DHT22;11950;51.230;4.012;2024-01-27T04:17:24;3.30;99.90
23544;DHT22;11950;51.230;4.012;2024-01-27T04:19:50;3.20;99.90
23544;DHT22;11950;51.230;4.012;2024-01-27T04:22:16;3.20;99.90
23544;DHT22;11950;51.230;4.012;2024-01-27T04:24:43;3.20;99.90
23544;DHT22;11950;51.230;4.012;2024-01-27T04:27:09;3.20;99.90
23544;DHT22;11950;51.230;4.012;2024-01-27T04:29:36;3.30;99.90
23544;DHT22;11950;51.230;4.012;2024-01-27T04:32:02;3.30;99.90
23544;DHT22;11950;51.230;4.012;2024-01-27T04:34:28;3.20;99.90
23544;DHT22;11950;51.230;4.012;2024-01-27T04:36:55;3.30;99.90
23544;DHT22;11950;51.230;4.012;2024-01-27T04:39:21;3.30;99.90
23544;DHT22;11950;51.230;4.012;2024-01-27T04:41:47;3.30;99.90
23544;DHT22;11950;51.230;4.012;2024-01-27T04:44:13;3.30;99.90
23544;DHT22;11950;51.230;4.012;2024-01-27T04:46:40;3.30;99.90
23544;DHT22;11950;51.230;4.012;2024-01-27T04:49:06;3.40;99.90
23544;DHT22;11950;51.230;4.012;2024-01-27T04:51:32;3.40;99.90
23544;DHT22;11950;51.230;4.012;2024-01-27T04:53:58;3.40;99.90
23544;DHT22;11950;51.230;4.012;2024-01-27T04:56:25;3.40;99.90
23544;DHT22;11950;51.230;4.012;2024-01-27T04:58:51;3.40;99.90
23544;DHT22;11950;51.230;4.012;2024-01-27T05:01:17;3.50;99.90
23544;DHT22;11950;51.230;4.012;2024-01-27T05:03:43;3.40;99.90
23544;DHT22;11950;51.230;4.012;2024-01-27T05:06:10;3.40;99.90
23544;DHT22;11950;51.230;4.012;2024-01-27T05:08:37;3.30;99.90
23544;DHT22;11950;51.230;4.012;2024-01-27T05:11:03;3.30;99.90
23544;DHT22;11950;51.230;4.012;2024-01-27T05:13:29;3.30;99.90
23544;DHT22;11950;51.230;4.012;2024-01-27T05:15:56;3.40;99.90
23544;DHT22;11950;51.230;4.012;2024-01-27T05:18:22;3.40;99.90
23544;DHT22;11950;51.230;4.012;2024-01-27T05:20:49;3.40;99.90
23544;DHT22;11950;51.230;4.012;2024-01-27T05:23:15;3.30;99.90
23544;DHT22;11950;51.230;4.012;2024-01-27T05:25:41;3.40;99.90
23544;DHT22;11950;51.230;4.012;2024-01-27T05:28:07;3.30;99.90
23544;DHT22;11950;51.230;4.012;2024-01-27T05:30:33;3.30;99.90
23544;DHT22;11950;51.230;4.012;2024-01-27T05:33:00;3.20;99.90
23544;DHT22;11950;51.230;4.012;2024-01-27T05:35:26;3.20;99.90
23544;DHT22;11950;51.230;4.012;2024-01-27T05:37:52;3.20;99.90
23544;DHT22;11950;51.230;4.012;2024-01-27T05:40:20;3.20;99.90
23544;DHT22;11950;51.230;4.012;2024-01-27T05:42:46;3.20;99.90
23544;DHT22;11950;51.230;4.012;2024-01-27T05:45:12;3.10;99.90
23544;DHT22;11950;51.230;4.012;2024-01-27T05:47:39;3.10;99.90
23544;DHT22;11950;51.230;4.012;2024-01-27T05:50:05;3.20;99.90
23544;DHT22;11950;51.230;4.012;2024-01-27T05:52:37;3.10;99.90
23544;DHT22;11950;51.230;4.012;2024-01-27T05:55:03;3.10;99.90
23544;DHT22;11950;51.230;4.012;2024-01-27T05:57:32;3.10;99.90
23544;DHT22;11950;51.230;4.012;2024-01-27T05:59:58;3.00;99.90
23544;DHT22;11950;51.230;4.012;2024-01-27T06:02:25;3.00;99.90
23544;DHT22;11950;51.230;4.012;2024-01-27T06:04:51;3.00;99.90
23544;DHT22;11950;51.230;4.012;2024-01-27T06:07:17;3.00;99.90
23544;DHT22;11950;51.230;4.012;2024-01-27T06:09:43;2.90;99.90
23544;DHT22;11950;51.230;4.012;2024-01-27T06:12:09;3.00;99.90
23544;DHT22;11950;51.230;4.012;2024-01-27T06:14:36;2.90;99.90
23544;DHT22;11950;51.230;4.012;2024-01-27T06:17:04;2.90;99.90
23544;DHT22;11950;51.230;4.012;2024-01-27T06:19:31;2.90;99.90
23544;DHT22;11950;51.230;4.012;2024-01-27T06:21:57;2.90;99.90
23544;DHT22;11950;51.230;4.012;2024-01-27T06:24:24;2.90;99.90
23544;DHT22;11950;51.230;4.012;2024-01-27T06:26:50;3.00;99.90
23544;DHT22;11950;51.230;4.012;2024-01-27T06:29:16;3.00;99.90
23544;DHT22;11950;51.230;4.012;2024-01-27T06:31:42;2.90;99.90
23544;DHT22;11950;51.230;4.012;2024-01-27T06:34:08;2.90;99.90
23544;DHT22;11950;51.230;4.012;2024-01-27T06:36:35;2.90;99.90
23544;DHT22;11950;51.230;4.012;2024-01-27T06:39:01;2.90;99.90
23544;DHT22;11950;51.230;4.012;2024-01-27T06:41:27;2.90;99.90
23544;DHT22;11950;51.230;4.012;2024-01-27T06:43:53;2.90;99.90
23544;DHT22;11950;51.230;4.012;2024-01-27T06:46:20;2.90;99.90
23544;DHT22;11950;51.230;4.012;2024-01-27T06:48:46;2.90;99.90
23544;DHT22;11950;51.230;4.012;2024-01-27T06:51:12;2.90;99.90
23544;DHT22;11950;51.230;4.012;2024-01-27T06:53:39;2.80;99.90
23544;DHT22;11950;51.230;4.012;2024-01-27T06:56:05;2.80;99.90
23544;DHT22;11950;51.230;4.012;2024-01-27T06:58:31;2.70;99.90
23544;DHT22;11950;51.230;4.012;2024-01-27T07:00:58;2.70;99.90
23544;DHT22;11950;51.230;4.012;2024-01-27T07:03:24;2.70;99.90
23544;DHT22;11950;51.230;4.012;2024-01-27T07:05:50;2.60;99.90
23544;DHT22;11950;51.230;4.012;2024-01-27T07:08:17;2.70;99.90
23544;DHT22;11950;51.230;4.012;2024-01-27T07:10:43;2.60;99.90
23544;DHT22;11950;51.230;4.012;2024-01-27T07:13:09;2.70;99.90
23544;DHT22;11950;51.230;4.012;2024-01-27T07:15:35;2.70;99.90
23544;DHT22;11950;51.230;4.012;2024-01-27T07:18:03;2.60;99.90
23544;DHT22;11950;51.230;4.012;2024-01-27T07:20:30;2.60;99.90
23544;DHT22;11950;51.230;4.012;2024-01-27T07:22:56;2.60;99.90
23544;DHT22;11950;51.230;4.012;2024-01-27T07:25:23;2.60;99.90
23544;DHT22;11950;51.230;4.012;2024-01-27T07:27:49;2.60;99.90
23544;DHT22;11950;51.230;4.012;2024-01-27T07:30:15;2.60;99.90
23544;DHT22;11950;51.230;4.012;2024-01-27T07:32:42;2.60;99.90
23544;DHT22;11950;51.230;4.012;2024-01-27T07:35:10;2.60;99.90
23544;DHT22;11950;51.230;4.012;2024-01-27T07:37:36;2.60;99.90
23544;DHT22;11950;51.230;4.012;2024-01-27T07:40:02;2.70;99.90
23544;DHT22;11950;51.230;4.012;2024-01-27T07:42:29;2.70;99.90
23544;DHT22;11950;51.230;4.012;2024-01-27T07:44:55;2.80;99.90
23544;DHT22;11950;51.230;4.012;2024-01-27T07:47:22;2.80;99.90
23544;DHT22;11950;51.230;4.012;2024-01-27T07:49:48;2.80;99.90
23544;DHT22;11950;51.230;4.012;2024-01-27T07:52:14;2.80;99.90
23544;DHT22;11950;51.230;4.012;2024-01-27T07:54:42;2.80;99.90
23544;DHT22;11950;51.230;4.012;2024-01-27T07:57:08;2.90;99.90
23544;DHT22;11950;51.230;4.012;2024-01-27T07:59:34;2.90;99.90
23544;DHT22;11950;51.230;4.012;2024-01-27T08:02:00;3.00;99.90
23544;DHT22;11950;51.230;4.012;2024-01-27T08:04:27;2.90;99.90
23544;DHT22;11950;51.230;4.012;2024-01-27T08:06:53;3.00;99.90
23544;DHT22;11950;51.230;4.012;2024-01-27T08:09:20;3.10;99.90
23544;DHT22;11950;51.230;4.012;2024-01-27T08:11:46;3.10;99.90
23544;DHT22;11950;51.230;4.012;2024-01-27T08:14:17;3.20;99.90
23544;DHT22;11950;51.230;4.012;2024-01-27T08:16:43;3.20;99.90
23544;DHT22;11950;51.230;4.012;2024-01-27T08:19:09;3.20;99.90
23544;DHT22;11950;51.230;4.012;2024-01-27T08:21:36;3.30;99.90
23544;DHT22;11950;51.230;4.012;2024-01-27T08:24:02;3.30;99.90
23544;DHT22;11950;51.230;4.012;2024-01-27T08:26:28;3.40;99.90
23544;DHT22;11950;51.230;4.012;2024-01-27T08:28:55;3.50;99.90
23544;DHT22;11950;51.230;4.012;2024-01-27T08:31:22;3.50;99.90
23544;DHT22;11950;51.230;4.012;2024-01-27T08:33:49;3.60;99.90
23544;DHT22;11950;51.230;4.012;2024-01-27T08:36:15;3.60;99.90
23544;DHT22;11950;51.230;4.012;2024-01-27T08:38:41;3.70;99.90
23544;DHT22;11950;51.230;4.012;2024-01-27T08:41:08;3.80;99.90
23544;DHT22;11950;51.230;4.012;2024-01-27T08:43:34;3.80;99.90
23544;DHT22;11950;51.230;4.012;2024-01-27T08:46:01;3.80;99.90
23544;DHT22;11950;51.230;4.012;2024-01-27T08:48:27;3.90;99.90
23544;DHT22;11950;51.230;4.012;2024-01-27T08:50:53;4.00;99.90
23544;DHT22;11950;51.230;4.012;2024-01-27T08:53:19;4.00;99.90
23544;DHT22;11950;51.230;4.012;2024-01-27T08:55:45;4.10;99.90
23544;DHT22;11950;51.230;4.012;2024-01-27T08:58:12;4.20;99.90
23544;DHT22;11950;51.230;4.012;2024-01-27T09:00:38;4.20;99.90
23544;DHT22;11950;51.230;4.012;2024-01-27T09:03:04;4.30;99.90
23544;DHT22;11950;51.230;4.012;2024-01-27T09:05:31;4.30;99.90
23544;DHT22;11950;51.230;4.012;2024-01-27T09:07:57;4.30;99.90
23544;DHT22;11950;51.230;4.012;2024-01-27T09:10:24;4.30;99.90
23544;DHT22;11950;51.230;4.012;2024-01-27T09:12:50;4.40;99.90
23544;DHT22;11950;51.230;4.012;2024-01-27T09:15:17;4.50;99.90
23544;DHT22;11950;51.230;4.012;2024-01-27T09:17:43;4.60;99.90
23544;DHT22;11950;51.230;4.012;2024-01-27T09:20:10;4.60;99.90
23544;DHT22;11950;51.230;4.012;2024-01-27T09:22:36;4.70;99.90
23544;DHT22;11950;51.230;4.012;2024-01-27T09:25:03;4.70;99.90
23544;DHT22;11950;51.230;4.012;2024-01-27T09:27:29;4.80;99.90
23544;DHT22;11950;51.230;4.012;2024-01-27T09:29:56;4.90;99.90
23544;DHT22;11950;51.230;4.012;2024-01-27T09:32:22;4.90;99.90
23544;DHT22;11950;51.230;4.012;2024-01-27T09:34:48;5.00;99.90
23544;DHT22;11950;51.230;4.012;2024-01-27T09:37:15;5.00;99.90
23544;DHT22;11950;51.230;4.012;2024-01-27T09:39:41;5.10;99.90
23544;DHT22;11950;51.230;4.012;2024-01-27T09:42:13;5.20;99.90
23544;DHT22;11950;51.230;4.012;2024-01-27T09:44:43;5.20;99.90
23544;DHT22;11950;51.230;4.012;2024-01-27T09:47:13;5.30;99.90
23544;DHT22;11950;51.230;4.012;2024-01-27T09:49:40;5.30;99.90
23544;DHT22;11950;51.230;4.012;2024-01-27T09:52:07;5.30;99.90
23544;DHT22;11950;51.230;4.012;2024-01-27T09:54:35;5.40;99.90
23544;DHT22;11950;51.230;4.012;2024-01-27T09:57:02;5.40;99.90
23544;DHT22;11950;51.230;4.012;2024-01-27T09:59:29;5.50;99.90
23544;DHT22;11950;51.230;4.012;2024-01-27T10:01:57;5.50;99.90
23544;DHT22;11950;51.230;4.012;2024-01-27T10:04:24;5.60;99.90
23544;DHT22;11950;51.230;4.012;2024-01-27T10:06:51;5.60;99.90
23544;DHT22;11950;51.230;4.012;2024-01-27T10:09:19;5.70;99.90
23544;DHT22;11950;51.230;4.012;2024-01-27T10:11:48;5.80;99.90
23544;DHT22;11950;51.230;4.012;2024-01-27T10:14:15;5.80;99.90
23544;DHT22;11950;51.230;4.012;2024-01-27T10:16:45;5.90;99.90
23544;DHT22;11950;51.230;4.012;2024-01-27T10:19:15;5.90;99.90
23544;DHT22;11950;51.230;4.012;2024-01-27T10:21:45;5.90;99.90
23544;DHT22;11950;51.230;4.012;2024-01-27T10:24:12;6.00;99.90
23544;DHT22;11950;51.230;4.012;2024-01-27T10:26:38;6.10;99.90
23544;DHT22;11950;51.230;4.012;2024-01-27T10:29:05;6.00;99.90
23544;DHT22;11950;51.230;4.012;2024-01-27T10:31:35;6.00;99.90
23544;DHT22;11950;51.230;4.012;2024-01-27T10:34:04;6.00;99.90
23544;DHT22;11950;51.230;4.012;2024-01-27T10:36:41;6.10;99.90
23544;DHT22;11950;51.230;4.012;2024-01-27T10:39:22;6.10;99.90
23544;DHT22;11950;51.230;4.012;2024-01-27T10:41:50;6.10;99.90
23544;DHT22;11950;51.230;4.012;2024-01-27T10:44:18;6.10;99.90
23544;DHT22;11950;51.230;4.012;2024-01-27T10:46:46;6.10;99.90
23544;DHT22;11950;51.230;4.012;2024-01-27T10:49:14;6.10;99.90
23544;DHT22;11950;51.230;4.012;2024-01-27T10:51:50;6.10;99.90
23544;DHT22;11950;51.230;4.012;2024-01-27T10:54:26;6.20;99.90
23544;DHT22;11950;51.230;4.012;2024-01-27T10:56:57;6.30;99.90
23544;DHT22;11950;51.230;4.012;2024-01-27T10:59:27;6.30;99.90
23544;DHT22;11950;51.230;4.012;2024-01-27T11:01:54;6.30;99.90
23544;DHT22;11950;51.230;4.012;2024-01-27T11:04:22;6.40;99.90
23544;DHT22;11950;51.230;4.012;2024-01-27T11:06:49;6.50;99.90
23544;DHT22;11950;51.230;4.012;2024-01-27T11:09:17;6.60;99.90
23544;DHT22;11950;51.230;4.012;2024-01-27T11:11:45;6.70;99.90
23544;DHT22;11950;51.230;4.012;2024-01-27T11:14:12;6.80;99.90
23544;DHT22;11950;51.230;4.012;2024-01-27T11:16:38;6.90;99.90
23544;DHT22;11950;51.230;4.012;2024-01-27T11:19:10;7.00;99.90
23544;DHT22;11950;51.230;4.012;2024-01-27T11:21:38;7.10;99.90
23544;DHT22;11950;51.230;4.012;2024-01-27T11:24:17;7.10;99.90
23544;DHT22;11950;51.230;4.012;2024-01-27T11:26:44;7.20;99.90
23544;DHT22;11950;51.230;4.012;2024-01-27T11:29:10;7.30;99.90
23544;DHT22;11950;51.230;4.012;2024-01-27T11:31:45;7.40;99.90
23544;DHT22;11950;51.230;4.012;2024-01-27T11:34:12;7.50;99.90
23544;DHT22;11950;51.230;4.012;2024-01-27T11:36:38;7.60;99.90
23544;DHT22;11950;51.230;4.012;2024-01-27T11:39:05;7.70;99.90
23544;DHT22;11950;51.230;4.012;2024-01-27T11:41:31;7.80;99.90
23544;DHT22;11950;51.230;4.012;2024-01-27T11:43:58;7.90;99.90
23544;DHT22;11950;51.230;4.012;2024-01-27T11:46:28;8.00;99.90
23544;DHT22;11950;51.230;4.012;2024-01-27T11:48:54;8.10;99.90
23544;DHT22;11950;51.230;4.012;2024-01-27T11:51:21;8.10;99.90
23544;DHT22;11950;51.230;4.012;2024-01-27T11:53:49;8.10;99.90
23544;DHT22;11950;51.230;4.012;2024-01-27T11:56:15;8.20;99.90
23544;DHT22;11950;51.230;4.012;2024-01-27T11:58:48;8.20;99.90
23544;DHT22;11950;51.230;4.012;2024-01-27T12:01:15;8.30;99.90
23544;DHT22;11950;51.230;4.012;2024-01-27T12:03:42;8.30;99.90
23544;DHT22;11950;51.230;4.012;2024-01-27T12:06:09;8.40;99.90
23544;DHT22;11950;51.230;4.012;2024-01-27T12:08:35;8.40;99.90
23544;DHT22;11950;51.230;4.012;2024-01-27T12:11:02;8.40;99.90
23544;DHT22;11950;51.230;4.012;2024-01-27T12:13:28;8.50;99.90
23544;DHT22;11950;51.230;4.012;2024-01-27T12:15:55;8.50;99.90
23544;DHT22;11950;51.230;4.012;2024-01-27T12:18:21;8.60;99.90
23544;DHT22;11950;51.230;4.012;2024-01-27T12:20:47;8.60;99.90
23544;DHT22;11950;51.230;4.012;2024-01-27T12:23:14;8.70;99.90
23544;DHT22;11950;51.230;4.012;2024-01-27T12:25:42;8.70;99.90
23544;DHT22;11950;51.230;4.012;2024-01-27T12:28:08;8.80;99.90
23544;DHT22;11950;51.230;4.012;2024-01-27T12:30:35;8.80;99.90
23544;DHT22;11950;51.230;4.012;2024-01-27T12:33:09;8.90;99.90
23544;DHT22;11950;51.230;4.012;2024-01-27T12:35:38;8.90;99.90
23544;DHT22;11950;51.230;4.012;2024-01-27T12:38:07;8.90;99.90
23544;DHT22;11950;51.230;4.012;2024-01-27T12:40:33;8.90;99.90
23544;DHT22;11950;51.230;4.012;2024-01-27T12:43:00;9.00;99.90
23544;DHT22;11950;51.230;4.012;2024-01-27T12:45:26;9.00;99.90
23544;DHT22;11950;51.230;4.012;2024-01-27T12:47:52;9.00;99.90
23544;DHT22;11950;51.230;4.012;2024-01-27T12:50:18;9.10;99.90
23544;DHT22;11950;51.230;4.012;2024-01-27T12:52:45;9.10;99.90
23544;DHT22;11950;51.230;4.012;2024-01-27T12:55:11;9.10;99.90
23544;DHT22;11950;51.230;4.012;2024-01-27T12:57:37;9.20;99.90
23544;DHT22;11950;51.230;4.012;2024-01-27T13:00:09;9.20;99.90
23544;DHT22;11950;51.230;4.012;2024-01-27T13:02:39;9.20;99.90
23544;DHT22;11950;51.230;4.012;2024-01-27T13:05:06;9.30;99.90
23544;DHT22;11950;51.230;4.012;2024-01-27T13:07:33;9.30;99.90
23544;DHT22;11950;51.230;4.012;2024-01-27T13:09:59;9.30;99.90
23544;DHT22;11950;51.230;4.012;2024-01-27T13:12:25;9.30;99.90
23544;DHT22;11950;51.230;4.012;2024-01-27T13:14:52;9.40;99.90
23544;DHT22;11950;51.230;4.012;2024-01-27T13:17:18;9.40;99.90
23544;DHT22;11950;51.230;4.012;2024-01-27T13:19:45;9.50;99.90
23544;DHT22;11950;51.230;4.012;2024-01-27T13:22:12;9.50;99.90
23544;DHT22;11950;51.230;4.012;2024-01-27T13:24:38;9.60;99.90
23544;DHT22;11950;51.230;4.012;2024-01-27T13:27:04;9.60;99.90
23544;DHT22;11950;51.230;4.012;2024-01-27T13:29:31;9.70;99.90
23544;DHT22;11950;51.230;4.012;2024-01-27T13:31:58;9.70;99.90
23544;DHT22;11950;51.230;4.012;2024-01-27T13:34:27;9.80;99.90
23544;DHT22;11950;51.230;4.012;2024-01-27T13:36:56;9.80;99.90
23544;DHT22;11950;51.230;4.012;2024-01-27T13:39:23;9.80;99.90
23544;DHT22;11950;51.230;4.012;2024-01-27T13:41:49;9.80;99.90
23544;DHT22;11950;51.230;4.012;2024-01-27T13:44:15;9.80;99.90
23544;DHT22;11950;51.230;4.012;2024-01-27T13:46:41;9.90;99.90
23544;DHT22;11950;51.230;4.012;2024-01-27T13:49:08;9.90;99.90
23544;DHT22;11950;51.230;4.012;2024-01-27T13:51:34;9.90;99.90
23544;DHT22;11950;51.230;4.012;2024-01-27T13:54:00;9.90;99.90
23544;DHT22;11950;51.230;4.012;2024-01-27T13:56:26;10.00;99.90
23544;DHT22;11950;51.230;4.012;2024-01-27T13:58:55;10.00;99.90
23544;DHT22;11950;51.230;4.012;2024-01-27T14:01:21;10.00;99.90
23544;DHT22;11950;51.230;4.012;2024-01-27T14:03:47;10.00;99.90
23544;DHT22;11950;51.230;4.012;2024-01-27T14:06:14;10.00;99.90
23544;DHT22;11950;51.230;4.012;2024-01-27T14:08:40;10.00;99.90
23544;DHT22;11950;51.230;4.012;2024-01-27T14:11:07;10.00;99.90
23544;DHT22;11950;51.230;4.012;2024-01-27T14:13:33;10.10;99.90
23544;DHT22;11950;51.230;4.012;2024-01-27T14:15:59;10.10;99.90
23544;DHT22;11950;51.230;4.012;2024-01-27T14:18:26;10.10;99.90
23544;DHT22;11950;51.230;4.012;2024-01-27T14:20:52;10.20;99.90
23544;DHT22;11950;51.230;4.012;2024-01-27T14:23:18;10.20;99.90
23544;DHT22;11950;51.230;4.012;2024-01-27T14:25:44;10.20;99.90
23544;DHT22;11950;51.230;4.012;2024-01-27T14:28:11;10.20;99.90
23544;DHT22;11950;51.230;4.012;2024-01-27T14:30:37;10.20;99.90
23544;DHT22;11950;51.230;4.012;2024-01-27T14:33:05;10.20;99.90
23544;DHT22;11950;51.230;4.012;2024-01-27T14:35:32;10.20;99.90
23544;DHT22;11950;51.230;4.012;2024-01-27T14:37:59;10.20;99.90
23544;DHT22;11950;51.230;4.012;2024-01-27T14:40:27;10.20;99.90
23544;DHT22;11950;51.230;4.012;2024-01-27T14:42:53;10.10;99.90
23544;DHT22;11950;51.230;4.012;2024-01-27T14:45:19;10.10;99.90
23544;DHT22;11950;51.230;4.012;2024-01-27T14:47:46;10.10;99.90
23544;DHT22;11950;51.230;4.012;2024-01-27T14:50:12;10.10;99.90
23544;DHT22;11950;51.230;4.012;2024-01-27T14:52:39;10.10;99.90
23544;DHT22;11950;51.230;4.012;2024-01-27T14:55:05;10.10;99.90
23544;DHT22;11950;51.230;4.012;2024-01-27T14:57:34;10.10;99.90
23544;DHT22;11950;51.230;4.012;2024-01-27T15:00:00;10.10;99.90
23544;DHT22;11950;51.230;4.012;2024-01-27T15:02:28;10.00;99.90
23544;DHT22;11950;51.230;4.012;2024-01-27T15:04:55;10.00;99.90
23544;DHT22;11950;51.230;4.012;2024-01-27T15:07:21;10.00;99.90
23544;DHT22;11950;51.230;4.012;2024-01-27T15:09:48;9.90;99.90
23544;DHT22;11950;51.230;4.012;2024-01-27T15:12:14;9.90;99.90
23544;DHT22;11950;51.230;4.012;2024-01-27T15:14:40;9.90;99.90
23544;DHT22;11950;51.230;4.012;2024-01-27T15:17:07;9.90;99.90
23544;DHT22;11950;51.230;4.012;2024-01-27T15:19:33;9.80;99.90
23544;DHT22;11950;51.230;4.012;2024-01-27T15:21:59;9.80;99.90
23544;DHT22;11950;51.230;4.012;2024-01-27T15:24:26;9.80;99.90
23544;DHT22;11950;51.230;4.012;2024-01-27T15:26:52;9.80;99.90
23544;DHT22;11950;51.230;4.012;2024-01-27T15:29:20;9.70;99.90
23544;DHT22;11950;51.230;4.012;2024-01-27T15:31:46;9.70;99.90
23544;DHT22;11950;51.230;4.012;2024-01-27T15:34:12;9.70;99.90
23544;DHT22;11950;51.230;4.012;2024-01-27T15:36:40;9.60;99.90
23544;DHT22;11950;51.230;4.012;2024-01-27T15:39:06;9.50;99.90
23544;DHT22;11950;51.230;4.012;2024-01-27T15:41:35;9.40;99.90